EFW36VL EGKK-LGTS
Flight info
| Callsign | EFW36VL |
|---|---|
| Flight time | 2h 59m |
| Altitude | 35000 |
| Route | ODVIK2Z ODVIK Y311 DVR UL9 KONAN DCT KOK DCT KOMOB M150 PITES DCT EDISA DCT PICWI DCT UTABA DCT BEMKI DCT ELMEM DCT DIRAB DCT RASUG/N0445F370 DCT OKLAX DCT ENFAR DCT TALAS N130 ALIKO ALIKO1L |
| Aircraft | A320/M-SDE3FGIJ1KRWXY/S |
Departure
| Time | 2026-05-06 11:51 |
|---|---|
| Airport | London Gatwick Airport (EGKK) |
Arrival
| Time | 2026-05-06 14:51 |
|---|---|
| Airport | Thessaloniki Macedonia International Airport (LGTS) |
| Time | Latitude | Longitude | Altitude | Speed | Heading |
|---|---|---|---|---|---|
| 2026-05-06 10:55 | 51.15482 | -0.17028 | 211 ft | 0 kts | 348° |
| 2026-05-06 11:40 | 51.15467 | -0.17023 | 216 ft | 4 kts | 348° |
| 2026-05-06 11:40 | 51.15445 | -0.17015 | 215 ft | 3 kts | 347° |
| 2026-05-06 11:40 | 51.15427 | -0.17001 | 211 ft | 4 kts | 278° |
| 2026-05-06 11:40 | 51.15429 | -0.16963 | 212 ft | 4 kts | 257° |
| 2026-05-06 11:41 | 51.15431 | -0.16955 | 212 ft | 0 kts | 257° |
| 2026-05-06 11:43 | 51.15428 | -0.16973 | 213 ft | 5 kts | 259° |
| 2026-05-06 11:43 | 51.15416 | -0.17062 | 206 ft | 10 kts | 257° |
| 2026-05-06 11:44 | 51.15371 | -0.17273 | 211 ft | 10 kts | 252° |
| 2026-05-06 11:44 | 51.15344 | -0.17358 | 212 ft | 8 kts | 209° |
| 2026-05-06 11:44 | 51.15304 | -0.17415 | 208 ft | 9 kts | 247° |
| 2026-05-06 11:44 | 51.15289 | -0.17532 | 203 ft | 13 kts | 258° |
| 2026-05-06 11:45 | 51.15267 | -0.17688 | 204 ft | 15 kts | 258° |
| 2026-05-06 11:45 | 51.15246 | -0.17844 | 204 ft | 14 kts | 256° |
| 2026-05-06 11:45 | 51.15225 | -0.18000 | 209 ft | 15 kts | 258° |
| 2026-05-06 11:45 | 51.15201 | -0.18176 | 214 ft | 17 kts | 258° |
| 2026-05-06 11:46 | 51.15182 | -0.18356 | 203 ft | 17 kts | 260° |
| 2026-05-06 11:46 | 51.15157 | -0.18539 | 208 ft | 17 kts | 257° |
| 2026-05-06 11:46 | 51.15130 | -0.18728 | 203 ft | 18 kts | 257° |
| 2026-05-06 11:46 | 51.15103 | -0.18931 | 203 ft | 19 kts | 258° |
| 2026-05-06 11:47 | 51.15074 | -0.19145 | 206 ft | 20 kts | 257° |
| 2026-05-06 11:47 | 51.15043 | -0.19372 | 213 ft | 22 kts | 258° |
| 2026-05-06 11:47 | 51.15009 | -0.19614 | 208 ft | 23 kts | 257° |
| 2026-05-06 11:47 | 51.14977 | -0.19846 | 208 ft | 22 kts | 257° |
| 2026-05-06 11:48 | 51.14943 | -0.20093 | 203 ft | 24 kts | 257° |
| 2026-05-06 11:48 | 51.14906 | -0.20358 | 205 ft | 25 kts | 258° |
| 2026-05-06 11:48 | 51.14873 | -0.20596 | 208 ft | 20 kts | 258° |
| 2026-05-06 11:48 | 51.14843 | -0.20814 | 203 ft | 21 kts | 258° |
| 2026-05-06 11:49 | 51.14813 | -0.21035 | 215 ft | 17 kts | 258° |
| 2026-05-06 11:49 | 51.14789 | -0.21162 | 210 ft | 12 kts | 247° |
| 2026-05-06 11:49 | 51.14768 | -0.21294 | 208 ft | 13 kts | 258° |
| 2026-05-06 11:49 | 51.14738 | -0.21395 | 207 ft | 9 kts | 210° |
| 2026-05-06 11:50 | 51.14672 | -0.21371 | 208 ft | 11 kts | 142° |
| 2026-05-06 11:50 | 51.14600 | -0.21321 | 209 ft | 12 kts | 165° |
| 2026-05-06 11:50 | 51.14527 | -0.21239 | 210 ft | 15 kts | 119° |
| 2026-05-06 11:50 | 51.14541 | -0.21014 | 215 ft | 37 kts | 77° |
| 2026-05-06 11:51 | 51.14644 | -0.20266 | 209 ft | 98 kts | 78° |
| 2026-05-06 11:51 | 51.14829 | -0.18931 | 212 ft | 146 kts | 78° |
| 2026-05-06 11:51 | 51.15051 | -0.17230 | 577 ft | 154 kts | 75° |
| 2026-05-06 11:51 | 51.15267 | -0.15566 | 1230 ft | 152 kts | 73° |
| 2026-05-06 11:52 | 51.15503 | -0.13872 | 1614 ft | 165 kts | 73° |
| 2026-05-06 11:52 | 51.15772 | -0.11977 | 1799 ft | 187 kts | 74° |
| 2026-05-06 11:52 | 51.16077 | -0.09838 | 1991 ft | 211 kts | 72° |
| 2026-05-06 11:52 | 51.16421 | -0.07423 | 2274 ft | 236 kts | 75° |
| 2026-05-06 11:53 | 51.16788 | -0.04773 | 2784 ft | 251 kts | 76° |
| 2026-05-06 11:53 | 51.16889 | -0.01950 | 3585 ft | 260 kts | 88° |
| 2026-05-06 11:53 | 51.16835 | 0.00960 | 4410 ft | 264 kts | 88° |
| 2026-05-06 11:53 | 51.16810 | 0.03902 | 5248 ft | 268 kts | 86° |
| 2026-05-06 11:54 | 51.16803 | 0.06896 | 6068 ft | 272 kts | 86° |
| 2026-05-06 11:54 | 51.16802 | 0.09942 | 6803 ft | 278 kts | 86° |
| 2026-05-06 11:54 | 51.16802 | 0.13044 | 7558 ft | 282 kts | 86° |
| 2026-05-06 11:54 | 51.16802 | 0.16188 | 8304 ft | 285 kts | 86° |
| 2026-05-06 11:55 | 51.16795 | 0.19316 | 9045 ft | 288 kts | 88° |
| 2026-05-06 11:55 | 51.16780 | 0.22515 | 9782 ft | 291 kts | 87° |
| 2026-05-06 11:55 | 51.16760 | 0.25764 | 10445 ft | 295 kts | 89° |
| 2026-05-06 11:55 | 51.16739 | 0.29050 | 11097 ft | 298 kts | 89° |
| 2026-05-06 11:56 | 51.16714 | 0.32379 | 11693 ft | 305 kts | 90° |
| 2026-05-06 11:56 | 51.16665 | 0.35873 | 11833 ft | 327 kts | 89° |
| 2026-05-06 11:56 | 51.16587 | 0.39613 | 11968 ft | 347 kts | 90° |
| 2026-05-06 11:56 | 51.16490 | 0.43532 | 12334 ft | 358 kts | 90° |
| 2026-05-06 11:57 | 51.16384 | 0.47534 | 12861 ft | 365 kts | 91° |
| 2026-05-06 11:57 | 51.16278 | 0.51600 | 13445 ft | 369 kts | 91° |
| 2026-05-06 11:57 | 51.16178 | 0.55704 | 14060 ft | 372 kts | 91° |
| 2026-05-06 11:57 | 51.16083 | 0.59841 | 14534 ft | 377 kts | 91° |
| 2026-05-06 11:58 | 51.15988 | 0.64037 | 15051 ft | 380 kts | 92° |
| 2026-05-06 11:58 | 51.15891 | 0.68253 | 15597 ft | 382 kts | 91° |
| 2026-05-06 11:58 | 51.15790 | 0.72500 | 16062 ft | 386 kts | 91° |
| 2026-05-06 11:58 | 51.15684 | 0.76796 | 16564 ft | 389 kts | 92° |
| 2026-05-06 11:59 | 51.15575 | 0.81111 | 17135 ft | 392 kts | 92° |
| 2026-05-06 11:59 | 51.15465 | 0.85463 | 17621 ft | 395 kts | 92° |
| 2026-05-06 11:59 | 51.15350 | 0.89854 | 18147 ft | 399 kts | 92° |
| 2026-05-06 11:59 | 51.15234 | 0.94280 | 18660 ft | 401 kts | 92° |
| 2026-05-06 12:00 | 51.15116 | 0.98733 | 19141 ft | 404 kts | 92° |
| 2026-05-06 12:00 | 51.14995 | 1.03225 | 19693 ft | 406 kts | 92° |
| 2026-05-06 12:00 | 51.14871 | 1.07732 | 20211 ft | 409 kts | 93° |
| 2026-05-06 12:00 | 51.14743 | 1.12288 | 20672 ft | 413 kts | 93° |
| 2026-05-06 12:01 | 51.14616 | 1.16795 | 21188 ft | 414 kts | 94° |
| 2026-05-06 12:01 | 51.14484 | 1.21450 | 21644 ft | 417 kts | 94° |
| 2026-05-06 12:01 | 51.14352 | 1.26019 | 22070 ft | 420 kts | 94° |
| 2026-05-06 12:01 | 51.14212 | 1.30733 | 22536 ft | 422 kts | 94° |
| 2026-05-06 12:02 | 51.14069 | 1.35410 | 22938 ft | 425 kts | 94° |
| 2026-05-06 12:02 | 51.13926 | 1.40058 | 23357 ft | 427 kts | 94° |
| 2026-05-06 12:02 | 51.13782 | 1.44799 | 23733 ft | 430 kts | 94° |
| 2026-05-06 12:02 | 51.13640 | 1.49576 | 24052 ft | 432 kts | 94° |
| 2026-05-06 12:03 | 51.13493 | 1.54354 | 24435 ft | 433 kts | 94° |
| 2026-05-06 12:03 | 51.13343 | 1.59156 | 24784 ft | 435 kts | 94° |
| 2026-05-06 12:03 | 51.13190 | 1.63990 | 25135 ft | 440 kts | 93° |
| 2026-05-06 12:03 | 51.13035 | 1.68855 | 25556 ft | 439 kts | 93° |
| 2026-05-06 12:04 | 51.12873 | 1.73721 | 25861 ft | 442 kts | 94° |
| 2026-05-06 12:04 | 51.12706 | 1.78616 | 26177 ft | 443 kts | 94° |
| 2026-05-06 12:04 | 51.12538 | 1.83516 | 26527 ft | 444 kts | 94° |
| 2026-05-06 12:04 | 51.12368 | 1.88432 | 26807 ft | 447 kts | 94° |
| 2026-05-06 12:05 | 51.12193 | 1.93376 | 27184 ft | 446 kts | 94° |
| 2026-05-06 12:05 | 51.12019 | 1.98307 | 27518 ft | 448 kts | 94° |
| 2026-05-06 12:05 | 51.11844 | 2.03259 | 27927 ft | 447 kts | 94° |
| 2026-05-06 12:05 | 51.11671 | 2.08179 | 28418 ft | 443 kts | 94° |
| 2026-05-06 12:06 | 51.11493 | 2.13061 | 28766 ft | 442 kts | 94° |
| 2026-05-06 12:06 | 51.11315 | 2.17943 | 29141 ft | 442 kts | 94° |
| 2026-05-06 12:06 | 51.11131 | 2.22816 | 29574 ft | 441 kts | 94° |
| 2026-05-06 12:06 | 51.10947 | 2.27692 | 30005 ft | 440 kts | 93° |
| 2026-05-06 12:07 | 51.10763 | 2.32544 | 30407 ft | 438 kts | 94° |
| 2026-05-06 12:07 | 51.10577 | 2.37386 | 30780 ft | 438 kts | 95° |
| 2026-05-06 12:07 | 51.10392 | 2.42205 | 31176 ft | 436 kts | 95° |
| 2026-05-06 12:07 | 51.10207 | 2.47008 | 31589 ft | 434 kts | 95° |
| 2026-05-06 12:08 | 51.10016 | 2.51801 | 31980 ft | 434 kts | 95° |
| 2026-05-06 12:08 | 51.09823 | 2.56587 | 32346 ft | 433 kts | 94° |
| 2026-05-06 12:08 | 51.09560 | 2.61343 | 32734 ft | 431 kts | 100° |
| 2026-05-06 12:08 | 51.08884 | 2.65964 | 33095 ft | 429 kts | 109° |
| 2026-05-06 12:09 | 51.07762 | 2.70346 | 33441 ft | 426 kts | 118° |
| 2026-05-06 12:09 | 51.06377 | 2.74503 | 33780 ft | 426 kts | 120° |
| 2026-05-06 12:09 | 51.04985 | 2.78659 | 34079 ft | 425 kts | 119° |
| 2026-05-06 12:09 | 51.03600 | 2.82810 | 34330 ft | 426 kts | 119° |
| 2026-05-06 12:10 | 51.02215 | 2.86970 | 34587 ft | 425 kts | 119° |
| 2026-05-06 12:10 | 51.00838 | 2.91116 | 34821 ft | 425 kts | 118° |
| 2026-05-06 12:10 | 50.98048 | 2.99479 | 34938 ft | 434 kts | 120° |
| 2026-05-06 12:11 | 50.95195 | 3.07970 | 34934 ft | 443 kts | 120° |
| 2026-05-06 12:11 | 50.92279 | 3.16610 | 34923 ft | 445 kts | 119° |
| 2026-05-06 12:12 | 50.89352 | 3.25241 | 34917 ft | 445 kts | 119° |
| 2026-05-06 12:12 | 50.86424 | 3.33865 | 34912 ft | 444 kts | 119° |
| 2026-05-06 12:13 | 50.83976 | 3.41067 | 34903 ft | 443 kts | 120° |
| 2026-05-06 12:13 | 50.81065 | 3.49600 | 34913 ft | 444 kts | 120° |
| 2026-05-06 12:14 | 50.78123 | 3.58185 | 34912 ft | 444 kts | 120° |
| 2026-05-06 12:14 | 50.75176 | 3.66746 | 34912 ft | 444 kts | 120° |
| 2026-05-06 12:15 | 50.72223 | 3.75298 | 34904 ft | 444 kts | 121° |
| 2026-05-06 12:15 | 50.69262 | 3.83846 | 34903 ft | 444 kts | 120° |
| 2026-05-06 12:16 | 50.66297 | 3.92390 | 34903 ft | 444 kts | 120° |
| 2026-05-06 12:16 | 50.63324 | 4.00928 | 34907 ft | 444 kts | 120° |
| 2026-05-06 12:17 | 50.60345 | 4.09446 | 34910 ft | 444 kts | 120° |
| 2026-05-06 12:17 | 50.57364 | 4.17952 | 34904 ft | 444 kts | 121° |
| 2026-05-06 12:18 | 50.54370 | 4.26450 | 34901 ft | 444 kts | 120° |
| 2026-05-06 12:18 | 50.51389 | 4.34886 | 34897 ft | 444 kts | 121° |
| 2026-05-06 12:19 | 50.48382 | 4.43359 | 34900 ft | 444 kts | 121° |
| 2026-05-06 12:19 | 50.45366 | 4.51835 | 34904 ft | 445 kts | 121° |
| 2026-05-06 12:20 | 50.42343 | 4.60299 | 34898 ft | 445 kts | 121° |
| 2026-05-06 12:20 | 50.39310 | 4.68765 | 34896 ft | 445 kts | 121° |
| 2026-05-06 12:21 | 50.36279 | 4.77218 | 34897 ft | 446 kts | 121° |
| 2026-05-06 12:21 | 50.33232 | 4.85677 | 34897 ft | 446 kts | 121° |
| 2026-05-06 12:22 | 50.30179 | 4.94131 | 34880 ft | 446 kts | 121° |
| 2026-05-06 12:22 | 50.27121 | 5.02575 | 34883 ft | 446 kts | 121° |
| 2026-05-06 12:23 | 50.24052 | 5.11006 | 34876 ft | 447 kts | 121° |
| 2026-05-06 12:23 | 50.20966 | 5.19443 | 34855 ft | 448 kts | 121° |
| 2026-05-06 12:24 | 50.17870 | 5.27879 | 34860 ft | 448 kts | 121° |
| 2026-05-06 12:24 | 50.14766 | 5.36325 | 34859 ft | 449 kts | 121° |
| 2026-05-06 12:25 | 50.11429 | 5.44447 | 34861 ft | 448 kts | 124° |
| 2026-05-06 12:25 | 50.08127 | 5.52676 | 34848 ft | 448 kts | 124° |
| 2026-05-06 12:26 | 50.04921 | 5.60994 | 34860 ft | 448 kts | 123° |
| 2026-05-06 12:26 | 50.01803 | 5.69401 | 34858 ft | 448 kts | 122° |
| 2026-05-06 12:27 | 49.98707 | 5.77795 | 34860 ft | 447 kts | 122° |
| 2026-05-06 12:27 | 49.95602 | 5.86140 | 34853 ft | 446 kts | 122° |
| 2026-05-06 12:28 | 49.92469 | 5.94464 | 34843 ft | 446 kts | 123° |
| 2026-05-06 12:28 | 49.89329 | 6.02758 | 34834 ft | 446 kts | 123° |
| 2026-05-06 12:29 | 49.86185 | 6.11039 | 34835 ft | 446 kts | 123° |
| 2026-05-06 12:29 | 49.83019 | 6.19305 | 34829 ft | 446 kts | 123° |
| 2026-05-06 12:30 | 49.79817 | 6.27518 | 34823 ft | 445 kts | 124° |
| 2026-05-06 12:30 | 49.76606 | 6.35700 | 34794 ft | 445 kts | 124° |
| 2026-05-06 12:31 | 49.73391 | 6.43871 | 34800 ft | 445 kts | 124° |
| 2026-05-06 12:31 | 49.70199 | 6.51997 | 34797 ft | 446 kts | 124° |
| 2026-05-06 12:32 | 49.66980 | 6.60180 | 34801 ft | 446 kts | 124° |
| 2026-05-06 12:32 | 49.63752 | 6.68343 | 34788 ft | 446 kts | 124° |
| 2026-05-06 12:33 | 49.60514 | 6.76494 | 34777 ft | 446 kts | 125° |
| 2026-05-06 12:33 | 49.57268 | 6.84622 | 34785 ft | 445 kts | 125° |
| 2026-05-06 12:34 | 49.54021 | 6.92748 | 34795 ft | 445 kts | 125° |
| 2026-05-06 12:34 | 49.50776 | 7.00854 | 34808 ft | 444 kts | 125° |
| 2026-05-06 12:35 | 49.47532 | 7.08935 | 34820 ft | 444 kts | 125° |
| 2026-05-06 12:35 | 49.44289 | 7.16994 | 34794 ft | 443 kts | 125° |
| 2026-05-06 12:36 | 49.41036 | 7.25035 | 34790 ft | 444 kts | 125° |
| 2026-05-06 12:36 | 49.37768 | 7.33087 | 34780 ft | 444 kts | 125° |
| 2026-05-06 12:37 | 49.34495 | 7.41128 | 34793 ft | 444 kts | 125° |
| 2026-05-06 12:37 | 49.31218 | 7.49162 | 34786 ft | 445 kts | 126° |
| 2026-05-06 12:38 | 49.27935 | 7.57200 | 34763 ft | 445 kts | 126° |
| 2026-05-06 12:38 | 49.24657 | 7.65178 | 34776 ft | 446 kts | 126° |
| 2026-05-06 12:39 | 49.21348 | 7.73208 | 34778 ft | 447 kts | 126° |
| 2026-05-06 12:39 | 49.18019 | 7.81257 | 34785 ft | 448 kts | 126° |
| 2026-05-06 12:40 | 49.14684 | 7.89304 | 34789 ft | 448 kts | 126° |
| 2026-05-06 12:40 | 49.11345 | 7.97342 | 34778 ft | 449 kts | 127° |
| 2026-05-06 12:41 | 49.08000 | 8.05386 | 34783 ft | 449 kts | 127° |
| 2026-05-06 12:41 | 49.04641 | 8.13428 | 34793 ft | 450 kts | 127° |
| 2026-05-06 12:42 | 49.01272 | 8.21463 | 34796 ft | 450 kts | 127° |
| 2026-05-06 12:42 | 48.97898 | 8.29495 | 34801 ft | 450 kts | 128° |
| 2026-05-06 12:43 | 48.94352 | 8.37305 | 34806 ft | 444 kts | 137° |
| 2026-05-06 12:43 | 48.90130 | 8.44107 | 34807 ft | 443 kts | 139° |
| 2026-05-06 12:44 | 48.85917 | 8.50858 | 34814 ft | 443 kts | 139° |
| 2026-05-06 12:44 | 48.81690 | 8.57660 | 34808 ft | 443 kts | 138° |
| 2026-05-06 12:45 | 48.77458 | 8.64450 | 34811 ft | 443 kts | 139° |
| 2026-05-06 12:46 | 48.71098 | 8.74590 | 34797 ft | 442 kts | 140° |
| 2026-05-06 12:46 | 48.66937 | 8.81207 | 34804 ft | 441 kts | 140° |
| 2026-05-06 12:47 | 48.62703 | 8.87931 | 34808 ft | 441 kts | 140° |
| 2026-05-06 12:47 | 48.58468 | 8.94625 | 34805 ft | 441 kts | 140° |
| 2026-05-06 12:48 | 48.54256 | 9.01256 | 34805 ft | 440 kts | 140° |
| 2026-05-06 12:48 | 48.49989 | 9.07979 | 34819 ft | 440 kts | 140° |
| 2026-05-06 12:49 | 48.45750 | 9.14640 | 34798 ft | 440 kts | 140° |
| 2026-05-06 12:49 | 48.41504 | 9.21278 | 34804 ft | 441 kts | 140° |
| 2026-05-06 12:50 | 48.37242 | 9.27922 | 34809 ft | 441 kts | 140° |
| 2026-05-06 12:50 | 48.32980 | 9.34558 | 34807 ft | 441 kts | 140° |
| 2026-05-06 12:51 | 48.28742 | 9.41136 | 34808 ft | 441 kts | 141° |
| 2026-05-06 12:51 | 48.24375 | 9.47549 | 34771 ft | 435 kts | 147° |
| 2026-05-06 12:52 | 48.19704 | 9.53295 | 34781 ft | 435 kts | 147° |
| 2026-05-06 12:52 | 48.15036 | 9.59045 | 34788 ft | 434 kts | 147° |
| 2026-05-06 12:53 | 48.10361 | 9.64788 | 34786 ft | 434 kts | 147° |
| 2026-05-06 12:53 | 48.05688 | 9.70509 | 34792 ft | 434 kts | 147° |
| 2026-05-06 12:54 | 48.01011 | 9.76226 | 34786 ft | 434 kts | 147° |
| 2026-05-06 12:54 | 47.96341 | 9.81921 | 34757 ft | 434 kts | 148° |
| 2026-05-06 12:55 | 47.91664 | 9.87605 | 34761 ft | 434 kts | 148° |
| 2026-05-06 12:55 | 47.86979 | 9.93280 | 34775 ft | 434 kts | 148° |
| 2026-05-06 12:56 | 47.82287 | 9.98946 | 34790 ft | 434 kts | 148° |
| 2026-05-06 12:56 | 47.77623 | 10.04571 | 34783 ft | 435 kts | 148° |
| 2026-05-06 12:57 | 47.72928 | 10.10224 | 34786 ft | 434 kts | 148° |
| 2026-05-06 12:57 | 47.68243 | 10.15851 | 34767 ft | 434 kts | 149° |
| 2026-05-06 12:58 | 47.63543 | 10.21472 | 34771 ft | 434 kts | 149° |
| 2026-05-06 12:58 | 47.58839 | 10.27095 | 34774 ft | 435 kts | 148° |
| 2026-05-06 12:59 | 47.54026 | 10.32432 | 34770 ft | 431 kts | 154° |
| 2026-05-06 12:59 | 47.49022 | 10.37303 | 34794 ft | 429 kts | 154° |
| 2026-05-06 13:00 | 47.44063 | 10.42090 | 34763 ft | 429 kts | 154° |
| 2026-05-06 13:00 | 47.39087 | 10.46931 | 34751 ft | 429 kts | 154° |
| 2026-05-06 13:01 | 47.34099 | 10.51763 | 34749 ft | 429 kts | 154° |
| 2026-05-06 13:01 | 47.29094 | 10.56578 | 34776 ft | 430 kts | 154° |
| 2026-05-06 13:02 | 47.24126 | 10.61567 | 34790 ft | 433 kts | 152° |
| 2026-05-06 13:02 | 47.19252 | 10.66759 | 34785 ft | 432 kts | 152° |
| 2026-05-06 13:03 | 47.14397 | 10.71954 | 34795 ft | 433 kts | 152° |
| 2026-05-06 13:03 | 47.09502 | 10.77106 | 34772 ft | 432 kts | 152° |
| 2026-05-06 13:04 | 47.04616 | 10.82186 | 34791 ft | 430 kts | 153° |
| 2026-05-06 13:04 | 46.99736 | 10.87241 | 34819 ft | 429 kts | 153° |
| 2026-05-06 13:05 | 46.94900 | 10.92255 | 34834 ft | 428 kts | 153° |
| 2026-05-06 13:05 | 46.90521 | 10.98328 | 34848 ft | 446 kts | 136° |
| 2026-05-06 13:06 | 46.86759 | 11.05545 | 34858 ft | 447 kts | 135° |
| 2026-05-06 13:06 | 46.82987 | 11.12763 | 34828 ft | 446 kts | 137° |
| 2026-05-06 13:07 | 46.79110 | 11.19822 | 34846 ft | 445 kts | 138° |
| 2026-05-06 13:07 | 46.75178 | 11.26823 | 34854 ft | 447 kts | 138° |
| 2026-05-06 13:08 | 46.71251 | 11.33838 | 34845 ft | 447 kts | 138° |
| 2026-05-06 13:08 | 46.67978 | 11.39697 | 34869 ft | 449 kts | 138° |
| 2026-05-06 13:09 | 46.64049 | 11.46747 | 34851 ft | 448 kts | 137° |
| 2026-05-06 13:09 | 46.60123 | 11.53769 | 34865 ft | 447 kts | 137° |
| 2026-05-06 13:10 | 46.56192 | 11.60780 | 34873 ft | 448 kts | 137° |
| 2026-05-06 13:10 | 46.52249 | 11.67786 | 34883 ft | 448 kts | 137° |
| 2026-05-06 13:11 | 46.48288 | 11.74780 | 34903 ft | 449 kts | 138° |
| 2026-05-06 13:11 | 46.44337 | 11.81788 | 34903 ft | 449 kts | 137° |
| 2026-05-06 13:12 | 46.40383 | 11.88792 | 34900 ft | 448 kts | 137° |
| 2026-05-06 13:12 | 46.36416 | 11.95764 | 34904 ft | 448 kts | 138° |
| 2026-05-06 13:13 | 46.32439 | 12.02718 | 34900 ft | 449 kts | 138° |
| 2026-05-06 13:13 | 46.28465 | 12.09671 | 34886 ft | 449 kts | 137° |
| 2026-05-06 13:14 | 46.24488 | 12.16615 | 34889 ft | 448 kts | 137° |
| 2026-05-06 13:14 | 46.20510 | 12.23559 | 34902 ft | 449 kts | 137° |
| 2026-05-06 13:15 | 46.16526 | 12.30488 | 34904 ft | 448 kts | 137° |
| 2026-05-06 13:15 | 46.12530 | 12.37393 | 34918 ft | 449 kts | 138° |
| 2026-05-06 13:16 | 46.08531 | 12.44310 | 34907 ft | 449 kts | 138° |
| 2026-05-06 13:16 | 46.04530 | 12.51217 | 34915 ft | 449 kts | 137° |
| 2026-05-06 13:17 | 46.00519 | 12.58118 | 34921 ft | 449 kts | 138° |
| 2026-05-06 13:17 | 45.96531 | 12.64961 | 34927 ft | 450 kts | 138° |
| 2026-05-06 13:18 | 45.92511 | 12.71852 | 34939 ft | 451 kts | 138° |
| 2026-05-06 13:18 | 45.88478 | 12.78732 | 34902 ft | 450 kts | 137° |
| 2026-05-06 13:19 | 45.84443 | 12.85590 | 34906 ft | 449 kts | 137° |
| 2026-05-06 13:19 | 45.80405 | 12.92432 | 34906 ft | 450 kts | 137° |
| 2026-05-06 13:20 | 45.76364 | 12.99297 | 34905 ft | 451 kts | 137° |
| 2026-05-06 13:20 | 45.72307 | 13.06169 | 34887 ft | 452 kts | 137° |
| 2026-05-06 13:21 | 45.68250 | 13.13038 | 34915 ft | 453 kts | 137° |
| 2026-05-06 13:21 | 45.64182 | 13.19909 | 34945 ft | 453 kts | 137° |
| 2026-05-06 13:22 | 45.60100 | 13.26789 | 35111 ft | 453 kts | 137° |
| 2026-05-06 13:22 | 45.58068 | 13.30212 | 35438 ft | 451 kts | 137° |
| 2026-05-06 13:22 | 45.56046 | 13.33614 | 35735 ft | 450 kts | 137° |
| 2026-05-06 13:22 | 45.54017 | 13.37022 | 35995 ft | 449 kts | 137° |
| 2026-05-06 13:23 | 45.52020 | 13.40364 | 36273 ft | 448 kts | 137° |
| 2026-05-06 13:23 | 45.49975 | 13.43783 | 36542 ft | 448 kts | 137° |
| 2026-05-06 13:23 | 45.47983 | 13.47116 | 36772 ft | 447 kts | 136° |
| 2026-05-06 13:23 | 45.45963 | 13.50490 | 36920 ft | 448 kts | 136° |
| 2026-05-06 13:24 | 45.43935 | 13.53870 | 36957 ft | 448 kts | 136° |
| 2026-05-06 13:24 | 45.39888 | 13.60610 | 36946 ft | 448 kts | 137° |
| 2026-05-06 13:25 | 45.35835 | 13.67331 | 36915 ft | 448 kts | 136° |
| 2026-05-06 13:25 | 45.31786 | 13.74051 | 36951 ft | 446 kts | 137° |
| 2026-05-06 13:26 | 45.27745 | 13.80732 | 36952 ft | 446 kts | 137° |
| 2026-05-06 13:26 | 45.23696 | 13.87400 | 36964 ft | 446 kts | 137° |
| 2026-05-06 13:27 | 45.19638 | 13.94062 | 36970 ft | 446 kts | 137° |
| 2026-05-06 13:27 | 45.15582 | 14.00713 | 36963 ft | 446 kts | 137° |
| 2026-05-06 13:28 | 45.11525 | 14.07370 | 36976 ft | 446 kts | 137° |
| 2026-05-06 13:28 | 45.07456 | 14.14002 | 36986 ft | 446 kts | 137° |
| 2026-05-06 13:29 | 45.03388 | 14.20630 | 36985 ft | 446 kts | 137° |
| 2026-05-06 13:29 | 44.99315 | 14.27251 | 36991 ft | 447 kts | 137° |
| 2026-05-06 13:30 | 44.95235 | 14.33867 | 36972 ft | 447 kts | 137° |
| 2026-05-06 13:30 | 44.91147 | 14.40484 | 36984 ft | 447 kts | 137° |
| 2026-05-06 13:31 | 44.87061 | 14.47079 | 36992 ft | 447 kts | 137° |
| 2026-05-06 13:31 | 44.82962 | 14.53664 | 36985 ft | 447 kts | 137° |
| 2026-05-06 13:32 | 44.78890 | 14.60209 | 36974 ft | 447 kts | 137° |
| 2026-05-06 13:32 | 44.74791 | 14.66786 | 36994 ft | 447 kts | 137° |
| 2026-05-06 13:33 | 44.70687 | 14.73341 | 37002 ft | 446 kts | 137° |
| 2026-05-06 13:33 | 44.66591 | 14.79874 | 37001 ft | 445 kts | 137° |
| 2026-05-06 13:34 | 44.62492 | 14.86392 | 37012 ft | 445 kts | 137° |
| 2026-05-06 13:34 | 44.58393 | 14.92898 | 36998 ft | 445 kts | 137° |
| 2026-05-06 13:35 | 44.54287 | 14.99405 | 37002 ft | 446 kts | 137° |
| 2026-05-06 13:35 | 44.50174 | 15.05915 | 37004 ft | 446 kts | 137° |
| 2026-05-06 13:36 | 44.46052 | 15.12410 | 37005 ft | 446 kts | 137° |
| 2026-05-06 13:36 | 44.41929 | 15.18895 | 36986 ft | 446 kts | 137° |
| 2026-05-06 13:37 | 44.37804 | 15.25371 | 36998 ft | 446 kts | 137° |
| 2026-05-06 13:37 | 44.33673 | 15.31832 | 36999 ft | 446 kts | 137° |
| 2026-05-06 13:38 | 44.29561 | 15.38248 | 37012 ft | 447 kts | 137° |
| 2026-05-06 13:38 | 44.25415 | 15.44708 | 36988 ft | 447 kts | 137° |
| 2026-05-06 13:39 | 44.21269 | 15.51166 | 37002 ft | 447 kts | 137° |
| 2026-05-06 13:39 | 44.17114 | 15.57613 | 37004 ft | 446 kts | 137° |
| 2026-05-06 13:40 | 44.12963 | 15.64041 | 37007 ft | 446 kts | 137° |
| 2026-05-06 13:40 | 44.08807 | 15.70459 | 37003 ft | 447 kts | 137° |
| 2026-05-06 13:41 | 44.04642 | 15.76884 | 36984 ft | 447 kts | 137° |
| 2026-05-06 13:41 | 44.00469 | 15.83299 | 36990 ft | 448 kts | 137° |
| 2026-05-06 13:42 | 43.96282 | 15.89709 | 37002 ft | 448 kts | 137° |
| 2026-05-06 13:42 | 43.92096 | 15.96118 | 37006 ft | 448 kts | 137° |
| 2026-05-06 13:43 | 43.87911 | 16.02526 | 36987 ft | 449 kts | 136° |
| 2026-05-06 13:43 | 43.84380 | 16.09741 | 36998 ft | 455 kts | 126° |
| 2026-05-06 13:44 | 43.81125 | 16.17272 | 37007 ft | 456 kts | 126° |
| 2026-05-06 13:44 | 43.77858 | 16.24784 | 37019 ft | 455 kts | 126° |
| 2026-05-06 13:45 | 43.74581 | 16.32291 | 37024 ft | 456 kts | 126° |
| 2026-05-06 13:45 | 43.69656 | 16.43535 | 37028 ft | 456 kts | 125° |
| 2026-05-06 13:46 | 43.66374 | 16.51025 | 37037 ft | 456 kts | 126° |
| 2026-05-06 13:46 | 43.63091 | 16.58468 | 37036 ft | 457 kts | 126° |
| 2026-05-06 13:47 | 43.59792 | 16.65943 | 37052 ft | 456 kts | 126° |
| 2026-05-06 13:47 | 43.56487 | 16.73412 | 37043 ft | 456 kts | 125° |
| 2026-05-06 13:48 | 43.53178 | 16.80878 | 37052 ft | 457 kts | 126° |
| 2026-05-06 13:48 | 43.49866 | 16.88352 | 37037 ft | 455 kts | 125° |
| 2026-05-06 13:49 | 43.46563 | 16.95772 | 37031 ft | 454 kts | 125° |
| 2026-05-06 13:49 | 43.43239 | 17.03188 | 37033 ft | 456 kts | 126° |
| 2026-05-06 13:50 | 43.39911 | 17.10605 | 37027 ft | 454 kts | 125° |
| 2026-05-06 13:50 | 43.36589 | 17.18024 | 37038 ft | 456 kts | 125° |
| 2026-05-06 13:51 | 43.33242 | 17.25450 | 37064 ft | 458 kts | 125° |
| 2026-05-06 13:51 | 43.29879 | 17.32875 | 37067 ft | 458 kts | 125° |
| 2026-05-06 13:52 | 43.26516 | 17.40302 | 37048 ft | 458 kts | 125° |
| 2026-05-06 13:52 | 43.23147 | 17.47736 | 37053 ft | 459 kts | 125° |
| 2026-05-06 13:53 | 43.19772 | 17.55161 | 37059 ft | 459 kts | 125° |
| 2026-05-06 13:53 | 43.16387 | 17.62581 | 37060 ft | 459 kts | 125° |
| 2026-05-06 13:54 | 43.12992 | 17.69995 | 37069 ft | 459 kts | 125° |
| 2026-05-06 13:54 | 43.09597 | 17.77407 | 37065 ft | 460 kts | 125° |
| 2026-05-06 13:55 | 43.06196 | 17.84830 | 37079 ft | 461 kts | 125° |
| 2026-05-06 13:55 | 43.02779 | 17.92243 | 37086 ft | 461 kts | 125° |
| 2026-05-06 13:56 | 42.99352 | 17.99651 | 37087 ft | 461 kts | 125° |
| 2026-05-06 13:56 | 42.96502 | 18.05800 | 37077 ft | 461 kts | 126° |
| 2026-05-06 13:57 | 42.93070 | 18.13203 | 37080 ft | 461 kts | 126° |
| 2026-05-06 13:57 | 42.89632 | 18.20591 | 37093 ft | 461 kts | 126° |
| 2026-05-06 13:58 | 42.86195 | 18.27967 | 37090 ft | 461 kts | 126° |
| 2026-05-06 13:58 | 42.82754 | 18.35345 | 37090 ft | 461 kts | 126° |
| 2026-05-06 13:59 | 42.79307 | 18.42702 | 37093 ft | 461 kts | 126° |
| 2026-05-06 13:59 | 42.75847 | 18.50063 | 37083 ft | 462 kts | 126° |
| 2026-05-06 14:00 | 42.72375 | 18.57437 | 37083 ft | 463 kts | 126° |
| 2026-05-06 14:00 | 42.68900 | 18.64794 | 37093 ft | 463 kts | 126° |
| 2026-05-06 14:01 | 42.65415 | 18.72164 | 37094 ft | 463 kts | 126° |
| 2026-05-06 14:01 | 42.61933 | 18.79523 | 37084 ft | 463 kts | 126° |
| 2026-05-06 14:02 | 42.58439 | 18.86877 | 37081 ft | 463 kts | 126° |
| 2026-05-06 14:02 | 42.54919 | 18.94210 | 37093 ft | 464 kts | 126° |
| 2026-05-06 14:03 | 42.51406 | 19.01551 | 37100 ft | 464 kts | 126° |
| 2026-05-06 14:03 | 42.47921 | 19.08847 | 37114 ft | 465 kts | 126° |
| 2026-05-06 14:04 | 42.44397 | 19.16190 | 37116 ft | 465 kts | 126° |
| 2026-05-06 14:04 | 42.40860 | 19.23522 | 37123 ft | 465 kts | 126° |
| 2026-05-06 14:05 | 42.37328 | 19.30853 | 37113 ft | 465 kts | 126° |
| 2026-05-06 14:05 | 42.33788 | 19.38171 | 37118 ft | 465 kts | 126° |
| 2026-05-06 14:06 | 42.30234 | 19.45488 | 37114 ft | 466 kts | 126° |
| 2026-05-06 14:06 | 42.26681 | 19.52820 | 37108 ft | 467 kts | 126° |
| 2026-05-06 14:07 | 42.23114 | 19.60146 | 37106 ft | 467 kts | 126° |
| 2026-05-06 14:07 | 42.19528 | 19.67463 | 37107 ft | 468 kts | 126° |
| 2026-05-06 14:08 | 42.15942 | 19.74770 | 37111 ft | 468 kts | 126° |
| 2026-05-06 14:08 | 42.12354 | 19.82079 | 37101 ft | 467 kts | 126° |
| 2026-05-06 14:09 | 42.08761 | 19.89386 | 37103 ft | 468 kts | 126° |
| 2026-05-06 14:09 | 42.05157 | 19.96690 | 37102 ft | 468 kts | 126° |
| 2026-05-06 14:10 | 42.01576 | 20.03941 | 37093 ft | 469 kts | 126° |
| 2026-05-06 14:10 | 41.97963 | 20.11242 | 37093 ft | 469 kts | 127° |
| 2026-05-06 14:11 | 41.94336 | 20.18533 | 37112 ft | 470 kts | 126° |
| 2026-05-06 14:11 | 41.90700 | 20.25813 | 37117 ft | 469 kts | 126° |
| 2026-05-06 14:12 | 41.87068 | 20.33086 | 37112 ft | 469 kts | 126° |
| 2026-05-06 14:12 | 41.83438 | 20.40350 | 37108 ft | 469 kts | 126° |
| 2026-05-06 14:13 | 41.79798 | 20.47615 | 37101 ft | 469 kts | 126° |
| 2026-05-06 14:13 | 41.76147 | 20.54871 | 37103 ft | 470 kts | 126° |
| 2026-05-06 14:14 | 41.72546 | 20.62171 | 37091 ft | 470 kts | 125° |
| 2026-05-06 14:14 | 41.68976 | 20.69507 | 37089 ft | 471 kts | 125° |
| 2026-05-06 14:15 | 41.65391 | 20.76827 | 37084 ft | 470 kts | 125° |
| 2026-05-06 14:15 | 41.61784 | 20.84121 | 37078 ft | 470 kts | 125° |
| 2026-05-06 14:16 | 41.58185 | 20.91363 | 37070 ft | 471 kts | 125° |
| 2026-05-06 14:16 | 41.54578 | 20.98643 | 37073 ft | 471 kts | 125° |
| 2026-05-06 14:17 | 41.52764 | 21.02303 | 36370 ft | 476 kts | 125° |
| 2026-05-06 14:17 | 41.50928 | 21.05994 | 35591 ft | 479 kts | 125° |
| 2026-05-06 14:17 | 41.49075 | 21.09706 | 34768 ft | 482 kts | 125° |
| 2026-05-06 14:17 | 41.47211 | 21.13440 | 33863 ft | 487 kts | 125° |
| 2026-05-06 14:18 | 41.45317 | 21.17227 | 32717 ft | 494 kts | 125° |
| 2026-05-06 14:18 | 41.43411 | 21.21037 | 31888 ft | 494 kts | 125° |
| 2026-05-06 14:18 | 41.41520 | 21.24818 | 31369 ft | 487 kts | 125° |
| 2026-05-06 14:18 | 41.39650 | 21.28556 | 30732 ft | 484 kts | 125° |
| 2026-05-06 14:19 | 41.37791 | 21.32268 | 30123 ft | 481 kts | 125° |
| 2026-05-06 14:19 | 41.35936 | 21.35965 | 29456 ft | 477 kts | 125° |
| 2026-05-06 14:19 | 41.34105 | 21.39610 | 28867 ft | 473 kts | 125° |
| 2026-05-06 14:19 | 41.32281 | 21.43236 | 28246 ft | 469 kts | 125° |
| 2026-05-06 14:20 | 41.30474 | 21.46818 | 27654 ft | 465 kts | 125° |
| 2026-05-06 14:20 | 41.28678 | 21.50371 | 27068 ft | 461 kts | 125° |
| 2026-05-06 14:20 | 41.26894 | 21.53896 | 26477 ft | 458 kts | 125° |
| 2026-05-06 14:20 | 41.25118 | 21.57401 | 25901 ft | 455 kts | 125° |
| 2026-05-06 14:21 | 41.23352 | 21.60881 | 25338 ft | 453 kts | 125° |
| 2026-05-06 14:21 | 41.21595 | 21.64341 | 24785 ft | 450 kts | 125° |
| 2026-05-06 14:21 | 41.19851 | 21.67774 | 24252 ft | 448 kts | 125° |
| 2026-05-06 14:21 | 41.18117 | 21.71191 | 23726 ft | 446 kts | 125° |
| 2026-05-06 14:22 | 41.16388 | 21.74594 | 23147 ft | 444 kts | 125° |
| 2026-05-06 14:22 | 41.14667 | 21.77976 | 22656 ft | 440 kts | 125° |
| 2026-05-06 14:22 | 41.12957 | 21.81329 | 22139 ft | 437 kts | 124° |
| 2026-05-06 14:22 | 41.11264 | 21.84641 | 21645 ft | 434 kts | 125° |
| 2026-05-06 14:23 | 41.09563 | 21.87959 | 21122 ft | 433 kts | 124° |
| 2026-05-06 14:23 | 41.07879 | 21.91237 | 20657 ft | 429 kts | 124° |
| 2026-05-06 14:23 | 41.06181 | 21.94438 | 20460 ft | 419 kts | 126° |
| 2026-05-06 14:23 | 41.04464 | 21.97532 | 19997 ft | 416 kts | 127° |
| 2026-05-06 14:24 | 41.02720 | 22.00576 | 19473 ft | 412 kts | 128° |
| 2026-05-06 14:24 | 41.00975 | 22.03584 | 18928 ft | 413 kts | 128° |
| 2026-05-06 14:24 | 40.99223 | 22.06598 | 18391 ft | 412 kts | 128° |
| 2026-05-06 14:24 | 40.97474 | 22.09611 | 17859 ft | 410 kts | 128° |
| 2026-05-06 14:25 | 40.95771 | 22.12561 | 17305 ft | 408 kts | 128° |
| 2026-05-06 14:25 | 40.94070 | 22.15523 | 16813 ft | 403 kts | 127° |
| 2026-05-06 14:25 | 40.92384 | 22.18472 | 16330 ft | 399 kts | 127° |
| 2026-05-06 14:25 | 40.90730 | 22.21377 | 15800 ft | 394 kts | 127° |
| 2026-05-06 14:26 | 40.89082 | 22.24271 | 15245 ft | 391 kts | 127° |
| 2026-05-06 14:26 | 40.87451 | 22.27126 | 14722 ft | 388 kts | 127° |
| 2026-05-06 14:26 | 40.85829 | 22.29958 | 14219 ft | 385 kts | 128° |
| 2026-05-06 14:26 | 40.84219 | 22.32762 | 13691 ft | 382 kts | 128° |
| 2026-05-06 14:27 | 40.82620 | 22.35539 | 13126 ft | 378 kts | 128° |
| 2026-05-06 14:27 | 40.81033 | 22.38294 | 12535 ft | 376 kts | 128° |
| 2026-05-06 14:27 | 40.79460 | 22.41020 | 12085 ft | 370 kts | 128° |
| 2026-05-06 14:27 | 40.77902 | 22.43720 | 11523 ft | 368 kts | 128° |
| 2026-05-06 14:28 | 40.76412 | 22.46391 | 10808 ft | 357 kts | 126° |
| 2026-05-06 14:28 | 40.75068 | 22.49058 | 10411 ft | 339 kts | 124° |
| 2026-05-06 14:28 | 40.73858 | 22.51607 | 10244 ft | 317 kts | 123° |
| 2026-05-06 14:28 | 40.72720 | 22.54050 | 9913 ft | 310 kts | 123° |
| 2026-05-06 14:29 | 40.71604 | 22.56433 | 9780 ft | 303 kts | 123° |
| 2026-05-06 14:29 | 40.70492 | 22.58777 | 9645 ft | 301 kts | 123° |
| 2026-05-06 14:29 | 40.69364 | 22.61125 | 9140 ft | 305 kts | 124° |
| 2026-05-06 14:29 | 40.68226 | 22.63475 | 8832 ft | 302 kts | 124° |
| 2026-05-06 14:30 | 40.67208 | 22.65898 | 8420 ft | 305 kts | 109° |
| 2026-05-06 14:30 | 40.66981 | 22.68620 | 8033 ft | 298 kts | 81° |
| 2026-05-06 14:30 | 40.67659 | 22.71048 | 7848 ft | 277 kts | 55° |
| 2026-05-06 14:30 | 40.68926 | 22.72889 | 7542 ft | 270 kts | 40° |
| 2026-05-06 14:31 | 40.70255 | 22.74634 | 7277 ft | 269 kts | 46° |
| 2026-05-06 14:31 | 40.71466 | 22.76496 | 7049 ft | 266 kts | 51° |
| 2026-05-06 14:31 | 40.72591 | 22.78505 | 6477 ft | 279 kts | 56° |
| 2026-05-06 14:31 | 40.73625 | 22.80701 | 6002 ft | 284 kts | 61° |
| 2026-05-06 14:32 | 40.74509 | 22.82979 | 5547 ft | 276 kts | 69° |
| 2026-05-06 14:32 | 40.74888 | 22.85461 | 4814 ft | 278 kts | 94° |
| 2026-05-06 14:32 | 40.74424 | 22.87889 | 4244 ft | 269 kts | 121° |
| 2026-05-06 14:32 | 40.73286 | 22.89718 | 3968 ft | 250 kts | 143° |
| 2026-05-06 14:33 | 40.71805 | 22.90758 | 3698 ft | 236 kts | 165° |
| 2026-05-06 14:33 | 40.70217 | 22.91280 | 3413 ft | 234 kts | 167° |
| 2026-05-06 14:33 | 40.68644 | 22.91779 | 3107 ft | 231 kts | 167° |
| 2026-05-06 14:33 | 40.67091 | 22.92274 | 2804 ft | 230 kts | 166° |
| 2026-05-06 14:34 | 40.65537 | 22.92770 | 2500 ft | 229 kts | 166° |
| 2026-05-06 14:34 | 40.64008 | 22.93257 | 2199 ft | 222 kts | 167° |
| 2026-05-06 14:34 | 40.62543 | 22.93725 | 1911 ft | 208 kts | 167° |
| 2026-05-06 14:34 | 40.61190 | 22.94157 | 1662 ft | 193 kts | 167° |
| 2026-05-06 14:35 | 40.59936 | 22.94558 | 1419 ft | 180 kts | 167° |
| 2026-05-06 14:35 | 40.58771 | 22.94929 | 1193 ft | 161 kts | 167° |
| 2026-05-06 14:35 | 40.57753 | 22.95254 | 980 ft | 144 kts | 167° |
| 2026-05-06 14:35 | 40.56796 | 22.95559 | 800 ft | 140 kts | 166° |
| 2026-05-06 14:36 | 40.55859 | 22.95857 | 630 ft | 138 kts | 168° |
| 2026-05-06 14:36 | 40.54935 | 22.96153 | 458 ft | 138 kts | 169° |
| 2026-05-06 14:36 | 40.54015 | 22.96449 | 280 ft | 135 kts | 168° |
| 2026-05-06 14:36 | 40.53108 | 22.96739 | 99 ft | 134 kts | 168° |
| 2026-05-06 14:37 | 40.52250 | 22.97006 | 32 ft | 113 kts | 166° |
| 2026-05-06 14:37 | 40.51476 | 22.97241 | 267 ft | 120 kts | 167° |
| 2026-05-06 14:37 | 40.50608 | 22.97548 | 801 ft | 132 kts | 165° |
| 2026-05-06 14:37 | 40.49717 | 22.97899 | 1310 ft | 140 kts | 165° |
| 2026-05-06 14:38 | 40.48691 | 22.98249 | 1400 ft | 167 kts | 166° |
| 2026-05-06 14:38 | 40.47484 | 22.98630 | 1648 ft | 191 kts | 167° |
| 2026-05-06 14:38 | 40.46116 | 22.99059 | 2040 ft | 207 kts | 166° |
| 2026-05-06 14:38 | 40.44710 | 22.99501 | 2857 ft | 209 kts | 166° |
| 2026-05-06 14:39 | 40.43267 | 22.99960 | 3280 ft | 215 kts | 167° |
| 2026-05-06 14:39 | 40.41820 | 23.00425 | 3447 ft | 213 kts | 166° |
| 2026-05-06 14:39 | 40.40374 | 23.00773 | 3497 ft | 210 kts | 181° |
| 2026-05-06 14:39 | 40.38963 | 23.00305 | 3511 ft | 214 kts | 210° |
| 2026-05-06 14:40 | 40.37899 | 22.98955 | 3512 ft | 217 kts | 240° |
| 2026-05-06 14:40 | 40.37500 | 22.97054 | 3513 ft | 222 kts | 269° |
| 2026-05-06 14:40 | 40.37916 | 22.95120 | 3507 ft | 226 kts | 301° |
| 2026-05-06 14:40 | 40.39075 | 22.93721 | 3513 ft | 230 kts | 334° |
| 2026-05-06 14:41 | 40.40631 | 22.93339 | 3512 ft | 229 kts | 8° |
| 2026-05-06 14:41 | 40.42171 | 22.93804 | 3513 ft | 233 kts | 15° |
| 2026-05-06 14:41 | 40.43757 | 22.94329 | 3511 ft | 232 kts | 15° |
| 2026-05-06 14:41 | 40.45295 | 22.94831 | 3507 ft | 230 kts | 14° |
| 2026-05-06 14:42 | 40.46854 | 22.95337 | 3509 ft | 231 kts | 14° |
| 2026-05-06 14:42 | 40.48416 | 22.95845 | 3509 ft | 231 kts | 15° |
| 2026-05-06 14:42 | 40.49977 | 22.96352 | 3507 ft | 231 kts | 14° |
| 2026-05-06 14:42 | 40.51569 | 22.96574 | 3512 ft | 231 kts | 355° |
| 2026-05-06 14:43 | 40.53121 | 22.96101 | 3512 ft | 230 kts | 335° |
| 2026-05-06 14:43 | 40.54548 | 22.95143 | 3511 ft | 230 kts | 331° |
| 2026-05-06 14:43 | 40.55969 | 22.94176 | 3508 ft | 231 kts | 331° |
| 2026-05-06 14:43 | 40.57412 | 22.93200 | 3509 ft | 234 kts | 332° |
| 2026-05-06 14:44 | 40.58856 | 22.92225 | 3507 ft | 233 kts | 332° |
| 2026-05-06 14:44 | 40.60289 | 22.91251 | 3465 ft | 234 kts | 331° |
| 2026-05-06 14:44 | 40.61733 | 22.90267 | 3214 ft | 232 kts | 332° |
| 2026-05-06 14:45 | 40.64550 | 22.88349 | 2743 ft | 225 kts | 333° |
| 2026-05-06 14:45 | 40.65944 | 22.87507 | 2536 ft | 215 kts | 348° |
| 2026-05-06 14:45 | 40.67293 | 22.87761 | 2495 ft | 186 kts | 38° |
| 2026-05-06 14:45 | 40.67933 | 22.89016 | 2532 ft | 156 kts | 82° |
| 2026-05-06 14:46 | 40.67943 | 22.90385 | 2504 ft | 145 kts | 108° |
| 2026-05-06 14:46 | 40.67509 | 22.91549 | 2508 ft | 141 kts | 131° |
| 2026-05-06 14:46 | 40.66751 | 22.92327 | 2515 ft | 138 kts | 155° |
| 2026-05-06 14:46 | 40.65816 | 22.92682 | 2466 ft | 141 kts | 166° |
| 2026-05-06 14:47 | 40.65187 | 22.92882 | 2385 ft | 139 kts | 165° |
| 2026-05-06 14:47 | 40.64249 | 22.93182 | 2233 ft | 139 kts | 165° |
| 2026-05-06 14:47 | 40.63313 | 22.93481 | 2062 ft | 138 kts | 166° |
| 2026-05-06 14:47 | 40.62374 | 22.93777 | 1854 ft | 138 kts | 167° |
| 2026-05-06 14:48 | 40.61445 | 22.94076 | 1697 ft | 138 kts | 168° |
| 2026-05-06 14:48 | 40.60518 | 22.94371 | 1504 ft | 136 kts | 167° |
| 2026-05-06 14:48 | 40.59602 | 22.94662 | 1325 ft | 136 kts | 168° |
| 2026-05-06 14:48 | 40.58682 | 22.94955 | 1152 ft | 135 kts | 165° |
| 2026-05-06 14:49 | 40.57771 | 22.95249 | 973 ft | 134 kts | 166° |
| 2026-05-06 14:49 | 40.56854 | 22.95542 | 799 ft | 136 kts | 169° |
| 2026-05-06 14:49 | 40.55936 | 22.95837 | 626 ft | 138 kts | 168° |
| 2026-05-06 14:49 | 40.55007 | 22.96132 | 458 ft | 138 kts | 169° |
| 2026-05-06 14:50 | 40.54080 | 22.96429 | 300 ft | 136 kts | 170° |
| 2026-05-06 14:50 | 40.53168 | 22.96720 | 115 ft | 135 kts | 169° |
| 2026-05-06 14:50 | 40.52311 | 22.96990 | 28 ft | 108 kts | 167° |
| 2026-05-06 14:50 | 40.51789 | 22.97155 | 28 ft | 57 kts | 166° |
| 2026-05-06 14:51 | 40.51572 | 22.97225 | 30 ft | 14 kts | 166° |
| 2026-05-06 14:51 | 40.51516 | 22.97311 | 30 ft | 15 kts | 99° |
| 2026-05-06 14:51 | 40.51548 | 22.97408 | 29 ft | 10 kts | 14° |
| 2026-05-06 14:51 | 40.51625 | 22.97389 | 29 ft | 12 kts | 346° |
| 2026-05-06 14:52 | 40.51715 | 22.97361 | 29 ft | 14 kts | 347° |
| 2026-05-06 14:52 | 40.51817 | 22.97328 | 28 ft | 17 kts | 346° |
| 2026-05-06 14:52 | 40.51943 | 22.97289 | 29 ft | 20 kts | 346° |
| 2026-05-06 14:52 | 40.52077 | 22.97246 | 28 ft | 17 kts | 346° |
| 2026-05-06 14:53 | 40.52185 | 22.97211 | 28 ft | 17 kts | 346° |
| 2026-05-06 14:53 | 40.52303 | 22.97174 | 28 ft | 15 kts | 346° |
| 2026-05-06 14:53 | 40.52360 | 22.97171 | 28 ft | 7 kts | 26° |
| 2026-05-06 14:53 | 40.52386 | 22.97232 | 28 ft | 8 kts | 73° |
| 2026-05-06 14:54 | 40.52401 | 22.97315 | 28 ft | 10 kts | 76° |
| 2026-05-06 14:54 | 40.52371 | 22.97392 | 28 ft | 11 kts | 135° |
| 2026-05-06 14:54 | 40.52322 | 22.97458 | 28 ft | 9 kts | 135° |
| 2026-05-06 14:54 | 40.52272 | 22.97522 | 28 ft | 11 kts | 135° |
| 2026-05-06 14:55 | 40.52245 | 22.97577 | 28 ft | 5 kts | 79° |
| 2026-05-06 14:55 | 40.52269 | 22.97608 | 28 ft | 2 kts | 44° |
| 2026-05-06 14:55 | 40.52279 | 22.97622 | 28 ft | 1 kts | 44° |
| 2026-05-06 14:55 | 40.52282 | 22.97625 | 28 ft | 0 kts | 45° |